createdAt,value
2023-03-10T00:02:11.201Z,23.85
2023-03-10T00:06:11.271Z,23.84
2023-03-10T00:10:11.404Z,23.83
2023-03-10T00:14:11.493Z,23.83
2023-03-10T00:18:11.654Z,23.81
2023-03-10T00:22:11.796Z,23.80
2023-03-10T00:26:12.018Z,23.80
2023-03-10T00:30:12.202Z,23.79
2023-03-10T00:34:12.343Z,23.78
2023-03-10T00:38:12.571Z,23.77
2023-03-10T00:42:12.706Z,23.75
2023-03-10T00:46:12.943Z,23.75
2023-03-10T00:50:13.007Z,23.74
2023-03-10T00:54:13.135Z,23.73
2023-03-10T00:58:13.277Z,23.72
2023-03-10T01:02:13.361Z,23.71
2023-03-10T01:06:13.413Z,23.70
2023-03-10T01:10:13.554Z,23.69
2023-03-10T01:14:13.577Z,23.68
2023-03-10T01:18:13.603Z,23.68
2023-03-10T01:22:13.597Z,23.67
2023-03-10T01:26:13.508Z,23.67
2023-03-10T01:30:13.487Z,23.66
2023-03-10T01:34:13.464Z,23.65
2023-03-10T01:38:13.444Z,23.65
2023-03-10T01:42:13.418Z,23.63
2023-03-10T01:46:13.365Z,23.63
2023-03-10T01:50:13.308Z,23.62
2023-03-10T01:54:13.295Z,23.62
2023-03-10T01:58:13.224Z,23.61
2023-03-10T02:02:13.290Z,23.60
2023-03-10T02:06:14.441Z,23.58
2023-03-10T02:10:13.095Z,23.58
2023-03-10T02:14:13.163Z,23.57
2023-03-10T02:18:13.075Z,23.57
2023-03-10T02:22:13.022Z,23.56
2023-03-10T02:26:12.940Z,23.55
2023-03-10T02:30:12.934Z,23.54
2023-03-10T02:34:12.911Z,23.53
2023-03-10T02:38:12.888Z,23.53
2023-03-10T02:42:12.884Z,23.52
2023-03-10T02:46:12.893Z,23.52
2023-03-10T02:50:12.743Z,23.51
2023-03-10T02:54:12.685Z,23.51
2023-03-10T02:58:12.655Z,23.49
2023-03-10T03:02:12.942Z,23.49
2023-03-10T03:06:12.604Z,23.48
2023-03-10T03:10:12.527Z,23.48
2023-03-10T03:14:12.502Z,23.46
2023-03-10T03:18:12.485Z,23.46
2023-03-10T03:22:12.455Z,23.44
2023-03-10T03:26:12.391Z,23.44
2023-03-10T03:30:12.390Z,23.44
2023-03-10T03:34:12.336Z,23.43
2023-03-10T03:38:12.260Z,23.43
2023-03-10T03:42:12.264Z,23.42
2023-03-10T03:46:12.276Z,23.41
2023-03-10T03:50:12.201Z,23.41
2023-03-10T03:54:12.156Z,23.40
2023-03-10T03:58:12.090Z,23.40
2023-03-10T04:02:12.087Z,23.40
2023-03-10T04:06:12.508Z,23.37
2023-03-10T04:10:12.026Z,23.37
2023-03-10T04:14:11.995Z,23.36
2023-03-10T04:18:11.932Z,23.36
2023-03-10T04:22:11.892Z,23.35
2023-03-10T04:26:11.876Z,23.35
2023-03-10T04:30:11.869Z,23.34
2023-03-10T04:34:11.832Z,23.33
2023-03-10T04:38:11.819Z,23.33
2023-03-10T04:42:11.796Z,23.33
2023-03-10T04:46:11.807Z,23.32
2023-03-10T04:50:11.715Z,23.32
2023-03-10T04:54:11.656Z,23.30
2023-03-10T04:58:11.630Z,23.30
2023-03-10T05:02:11.638Z,23.30
2023-03-10T05:06:11.536Z,23.29
2023-03-10T05:10:11.558Z,23.29
2023-03-10T05:14:11.483Z,23.27
2023-03-10T05:18:11.448Z,23.27
2023-03-10T05:22:11.440Z,23.26
2023-03-10T05:26:11.402Z,23.26
2023-03-10T05:30:11.322Z,23.25
2023-03-10T05:34:11.559Z,23.24
2023-03-10T05:38:11.233Z,23.24
2023-03-10T05:42:11.206Z,23.23
2023-03-10T05:46:11.228Z,23.22
2023-03-10T05:50:11.117Z,23.22
2023-03-10T05:54:11.188Z,23.22
2023-03-10T05:58:11.081Z,23.21
2023-03-10T06:02:11.076Z,23.21
2023-03-10T06:06:11.512Z,23.20
2023-03-10T06:10:11.047Z,23.19
2023-03-10T06:14:11.274Z,23.19
2023-03-10T06:18:11.298Z,23.20
2023-03-10T06:22:11.378Z,23.19
2023-03-10T06:26:11.458Z,23.19
2023-03-10T06:30:11.529Z,23.19
2023-03-10T06:34:11.611Z,23.14
2023-03-10T06:38:12.564Z,22.67
2023-03-10T06:42:12.086Z,22.18
2023-03-10T06:46:12.164Z,22.23
2023-03-10T06:50:12.186Z,22.42
2023-03-10T06:54:12.171Z,22.63
2023-03-10T06:58:12.158Z,22.82
2023-03-10T07:02:12.618Z,23.01
2023-03-10T07:06:12.042Z,23.14
2023-03-10T07:10:12.004Z,23.25
2023-03-10T07:14:11.988Z,23.33
2023-03-10T07:18:11.882Z,23.41
2023-03-10T07:22:11.940Z,23.48
2023-03-10T07:26:11.865Z,23.53
2023-03-10T07:30:11.880Z,23.58
2023-03-10T07:34:11.796Z,23.62
2023-03-10T07:38:11.687Z,23.64
2023-03-10T07:42:11.672Z,23.68
2023-03-10T07:46:11.855Z,23.49
2023-03-10T07:50:11.616Z,23.28
2023-03-10T07:54:11.600Z,23.32
2023-03-10T07:58:11.636Z,23.41
2023-03-10T08:02:12.081Z,23.53
2023-03-10T08:06:11.800Z,23.63
2023-03-10T08:10:11.662Z,23.73
2023-03-10T08:14:11.701Z,23.80
2023-03-10T08:18:11.649Z,23.86
2023-03-10T08:22:11.621Z,23.92
2023-03-10T08:26:11.556Z,23.97
2023-03-10T08:30:11.548Z,24.01
2023-03-10T08:34:11.538Z,23.98
2023-03-10T08:38:11.436Z,23.45
2023-03-10T08:42:11.609Z,23.24
2023-03-10T08:46:11.471Z,23.24
2023-03-10T08:50:11.324Z,23.37
2023-03-10T08:54:11.347Z,23.56
2023-03-10T08:58:11.253Z,23.74
2023-03-10T09:02:11.261Z,23.83
2023-03-10T09:06:11.237Z,23.89
2023-03-10T09:10:11.368Z,23.95
2023-03-10T09:14:11.455Z,24.01
2023-03-10T09:18:11.646Z,24.11
2023-03-10T09:22:12.469Z,24.18
2023-03-10T09:26:12.187Z,24.24
2023-03-10T09:30:12.349Z,24.24
2023-03-10T09:34:12.482Z,24.23
2023-03-10T09:38:12.615Z,24.22
2023-03-10T09:42:13.328Z,24.19
2023-03-10T09:46:13.077Z,24.01
2023-03-10T09:50:13.065Z,23.81
2023-03-10T09:54:12.950Z,23.60
2023-03-10T09:58:12.908Z,23.47
2023-03-10T10:02:12.888Z,23.37
2023-03-10T10:06:12.877Z,23.30
2023-03-10T10:10:12.832Z,23.25
2023-03-10T10:14:15.894Z,23.21
2023-03-10T10:18:19.641Z,23.18
2023-03-10T10:22:13.688Z,23.17
2023-03-10T10:26:12.635Z,23.21
2023-03-10T10:30:12.572Z,23.21
2023-03-10T10:34:15.690Z,23.08
2023-03-10T10:38:12.559Z,23.14
2023-03-10T10:42:12.510Z,23.36
2023-03-10T10:46:12.575Z,23.53
2023-03-10T10:50:12.468Z,23.65
2023-03-10T10:54:12.432Z,23.77
2023-03-10T10:58:12.358Z,23.83
2023-03-10T11:02:12.425Z,23.87
2023-03-10T11:06:12.315Z,24.00
2023-03-10T11:10:12.296Z,24.12
2023-03-10T11:14:12.296Z,24.22
2023-03-10T11:18:12.472Z,24.28
2023-03-10T11:22:12.619Z,24.35
2023-03-10T11:26:15.014Z,24.42
2023-03-10T11:30:13.232Z,24.48
2023-03-10T11:34:12.829Z,24.52
2023-03-10T11:38:12.896Z,24.51
2023-03-10T11:42:13.000Z,24.42
2023-03-10T11:46:13.370Z,24.12
2023-03-10T11:50:13.225Z,24.01
2023-03-10T11:54:13.676Z,24.05
2023-03-10T11:58:13.184Z,24.16
2023-03-10T12:02:13.097Z,24.16
2023-03-10T12:06:13.035Z,24.19
2023-03-10T12:10:12.986Z,24.28
2023-03-10T12:14:12.913Z,24.35
2023-03-10T12:18:13.269Z,24.41
2023-03-10T12:22:12.881Z,24.43
2023-03-10T12:26:12.856Z,24.33
2023-03-10T12:30:12.816Z,24.24
2023-03-10T12:34:13.048Z,24.22
2023-03-10T12:38:13.082Z,24.24
2023-03-10T12:42:13.269Z,24.26
2023-03-10T12:46:13.404Z,24.31
2023-03-10T12:50:13.552Z,24.37
2023-03-10T12:54:13.664Z,24.48
2023-03-10T12:58:13.676Z,24.52
2023-03-10T13:02:13.747Z,24.55
2023-03-10T13:06:13.776Z,24.63
2023-03-10T13:10:13.856Z,24.69
2023-03-10T13:14:13.855Z,24.68
2023-03-10T13:18:13.870Z,24.63
2023-03-10T13:22:13.897Z,24.62
2023-03-10T13:26:13.920Z,24.62
2023-03-10T13:30:13.939Z,24.62
2023-03-10T13:34:13.986Z,24.64
2023-03-10T13:38:14.011Z,24.62
2023-03-10T13:42:14.033Z,24.61
2023-03-10T13:46:14.102Z,24.62
2023-03-10T13:50:14.096Z,24.63
2023-03-10T13:54:14.108Z,24.65
2023-03-10T13:58:14.130Z,24.64
2023-03-10T14:02:14.174Z,24.61
2023-03-10T14:06:14.188Z,24.58
2023-03-10T14:10:14.269Z,24.56
2023-03-10T14:14:14.311Z,24.53
2023-03-10T14:18:14.381Z,24.51
2023-03-10T14:22:14.450Z,24.50
2023-03-10T14:26:14.518Z,24.49
2023-03-10T14:30:14.619Z,24.50
2023-03-10T14:34:14.640Z,24.51
2023-03-10T14:38:14.712Z,24.51
2023-03-10T14:42:14.797Z,24.50
2023-03-10T14:46:15.349Z,24.48
2023-03-10T14:50:14.897Z,24.47
2023-03-10T14:54:14.987Z,24.46
2023-03-10T14:58:15.090Z,24.47
2023-03-10T15:02:15.148Z,24.46
2023-03-10T15:06:15.205Z,24.47
2023-03-10T15:10:15.344Z,24.47
2023-03-10T15:14:15.442Z,24.47
2023-03-10T15:18:15.505Z,24.48
2023-03-10T15:22:15.584Z,24.49
2023-03-10T15:26:15.644Z,24.48
2023-03-10T15:30:15.784Z,24.48
2023-03-10T15:34:15.839Z,24.48
2023-03-10T15:38:15.933Z,24.47
2023-03-10T15:42:16.034Z,24.46
2023-03-10T15:46:16.137Z,24.47
2023-03-10T15:50:16.284Z,24.55
2023-03-10T15:54:16.357Z,24.51
2023-03-10T15:58:16.352Z,24.49
2023-03-10T16:02:16.419Z,24.46
2023-03-10T16:06:16.296Z,24.43
2023-03-10T16:10:16.257Z,24.42
2023-03-10T16:14:16.190Z,24.39
2023-03-10T16:18:16.167Z,24.38
2023-03-10T16:22:16.129Z,24.37
2023-03-10T16:26:16.123Z,24.36
2023-03-10T16:30:16.244Z,24.33
2023-03-10T16:34:16.008Z,24.32
2023-03-10T16:38:16.203Z,24.31
2023-03-10T16:42:16.345Z,24.30
2023-03-10T16:46:16.492Z,24.29
2023-03-10T16:50:16.649Z,24.28
2023-03-10T16:54:16.786Z,24.27
2023-03-10T16:58:16.964Z,24.27
2023-03-10T17:02:17.110Z,24.24
2023-03-10T17:06:17.222Z,24.22
2023-03-10T17:10:17.181Z,24.21
2023-03-10T17:14:17.183Z,24.20
2023-03-10T17:21:01.235Z,24.17
2023-03-10T17:25:01.202Z,24.16
2023-03-10T17:29:01.143Z,24.15
2023-03-10T17:33:01.672Z,24.13
2023-03-10T17:37:01.607Z,24.13
2023-03-10T17:41:01.565Z,24.12
2023-03-10T17:45:01.549Z,24.11
2023-03-10T17:49:01.528Z,24.10
2023-03-10T17:53:01.492Z,24.09
2023-03-10T17:57:01.427Z,24.08
2023-03-10T18:01:01.408Z,24.07
2023-03-10T18:05:01.382Z,24.07
2023-03-10T18:09:01.413Z,24.05
2023-03-10T18:13:01.584Z,24.05
2023-03-10T18:17:01.669Z,24.03
2023-03-10T18:21:01.899Z,24.03
2023-03-10T18:25:01.881Z,24.02
2023-03-10T18:29:01.891Z,24.01
2023-03-10T18:33:01.792Z,24.00
2023-03-10T18:37:01.762Z,24.00
2023-03-10T18:41:01.668Z,23.97
2023-03-10T18:45:01.661Z,23.98
2023-03-10T18:49:01.639Z,23.96
2023-03-10T18:53:01.605Z,23.95
2023-03-10T18:57:01.535Z,23.94
2023-03-10T19:01:01.508Z,23.94
2023-03-10T19:05:01.632Z,23.93
2023-03-10T19:09:01.617Z,23.93
2023-03-10T19:13:01.588Z,23.92
2023-03-10T19:17:01.562Z,23.91
2023-03-10T19:21:01.504Z,23.90
2023-03-10T19:25:01.470Z,23.90
2023-03-10T19:29:01.449Z,23.89
2023-03-10T19:33:01.412Z,23.88
2023-03-10T19:37:01.341Z,23.88
2023-03-10T19:41:01.317Z,23.87
2023-03-10T19:45:01.349Z,23.86
2023-03-10T19:49:01.325Z,23.85
2023-03-10T19:53:01.236Z,23.85
2023-03-10T19:57:01.234Z,23.84
2023-03-10T20:01:01.229Z,23.83
2023-03-10T20:05:01.141Z,23.83
2023-03-10T20:09:01.069Z,23.82
2023-03-10T20:13:01.065Z,23.82
2023-03-10T20:17:01.056Z,23.81
2023-03-10T20:21:01.025Z,23.80
2023-03-10T20:25:01.153Z,23.80
2023-03-10T20:29:01.881Z,23.78
2023-03-10T20:33:01.111Z,23.77
2023-03-10T20:37:01.089Z,23.76
2023-03-10T20:41:01.016Z,23.76
2023-03-10T20:45:00.995Z,23.75
2023-03-10T20:49:00.969Z,23.74
2023-03-10T20:53:00.928Z,23.74
2023-03-10T20:57:00.919Z,23.72
2023-03-10T21:01:01.106Z,23.72
2023-03-10T21:05:01.250Z,23.72
2023-03-10T21:09:01.414Z,23.72
2023-03-10T21:13:01.328Z,23.72
2023-03-10T21:17:01.350Z,23.70
2023-03-10T21:21:01.323Z,23.70
2023-03-10T21:25:01.264Z,23.69
2023-03-10T21:29:01.538Z,23.70
2023-03-10T21:33:01.210Z,23.68
2023-03-10T21:37:01.149Z,23.67
2023-03-10T21:41:01.126Z,23.67
2023-03-10T21:45:01.151Z,23.67
2023-03-10T21:49:01.029Z,23.66
2023-03-10T21:53:01.193Z,23.65
2023-03-10T21:57:01.023Z,23.65
2023-03-10T22:01:00.881Z,23.65
2023-03-10T22:05:00.928Z,23.64
2023-03-10T22:09:00.836Z,23.63
2023-03-10T22:13:00.874Z,23.62
2023-03-10T22:17:00.789Z,23.62
2023-03-10T22:21:00.786Z,23.62
2023-03-10T22:25:00.717Z,23.61
2023-03-10T22:29:00.722Z,23.60
2023-03-10T22:33:00.594Z,23.60
2023-03-10T22:37:00.560Z,23.60
2023-03-10T22:41:00.607Z,23.58
2023-03-10T22:45:00.470Z,23.58
2023-03-10T22:49:03.565Z,23.57
2023-03-10T22:53:00.412Z,23.57
2023-03-10T22:57:00.374Z,23.55
2023-03-10T23:01:01.043Z,23.55
2023-03-10T23:05:00.305Z,23.55
2023-03-10T23:09:00.282Z,23.55
2023-03-10T23:13:00.306Z,23.54
2023-03-10T23:17:00.177Z,23.53
2023-03-10T23:21:00.146Z,23.53
2023-03-10T23:25:00.137Z,23.53
2023-03-10T23:29:00.069Z,23.52
2023-03-10T23:33:00.023Z,23.51
2023-03-10T23:37:00.015Z,23.51
2023-03-10T23:40:59.979Z,23.51
2023-03-10T23:44:59.912Z,23.50
2023-03-10T23:49:00.856Z,23.49
2023-03-10T23:52:59.856Z,23.50
2023-03-10T23:56:59.837Z,23.49
